sensor_id;sensor_type;location;lat;lon;timestamp;P1;durP1;ratioP1;P2;durP2;ratioP2
7647;SDS011;3866;48.020;11.720;2023-12-04T00:00:13;20.90;;;13.20;;
7647;SDS011;3866;48.020;11.720;2023-12-04T00:02:42;21.60;;;13.67;;
7647;SDS011;3866;48.020;11.720;2023-12-04T00:05:11;21.47;;;14.60;;
7647;SDS011;3866;48.020;11.720;2023-12-04T00:07:38;20.33;;;13.80;;
7647;SDS011;3866;48.020;11.720;2023-12-04T00:10:06;18.37;;;13.20;;
7647;SDS011;3866;48.020;11.720;2023-12-04T00:12:33;18.80;;;12.83;;
7647;SDS011;3866;48.020;11.720;2023-12-04T00:15:00;21.37;;;13.53;;
7647;SDS011;3866;48.020;11.720;2023-12-04T00:17:27;20.37;;;12.70;;
7647;SDS011;3866;48.020;11.720;2023-12-04T00:19:55;19.13;;;12.27;;
7647;SDS011;3866;48.020;11.720;2023-12-04T00:22:23;19.97;;;12.57;;
7647;SDS011;3866;48.020;11.720;2023-12-04T00:24:50;18.20;;;12.07;;
7647;SDS011;3866;48.020;11.720;2023-12-04T00:27:16;19.20;;;12.20;;
7647;SDS011;3866;48.020;11.720;2023-12-04T00:29:44;17.00;;;11.37;;
7647;SDS011;3866;48.020;11.720;2023-12-04T00:32:11;17.97;;;12.07;;
7647;SDS011;3866;48.020;11.720;2023-12-04T00:34:38;18.80;;;12.23;;
7647;SDS011;3866;48.020;11.720;2023-12-04T00:37:06;13.83;;;9.70;;
7647;SDS011;3866;48.020;11.720;2023-12-04T00:39:35;16.10;;;11.10;;
7647;SDS011;3866;48.020;11.720;2023-12-04T00:42:03;14.70;;;10.50;;
7647;SDS011;3866;48.020;11.720;2023-12-04T00:44:31;15.07;;;10.67;;
7647;SDS011;3866;48.020;11.720;2023-12-04T00:46:58;14.70;;;10.70;;
7647;SDS011;3866;48.020;11.720;2023-12-04T00:49:25;15.60;;;10.33;;
7647;SDS011;3866;48.020;11.720;2023-12-04T00:51:51;15.13;;;10.77;;
7647;SDS011;3866;48.020;11.720;2023-12-04T00:54:20;16.07;;;11.20;;
7647;SDS011;3866;48.020;11.720;2023-12-04T00:56:47;15.47;;;10.60;;
7647;SDS011;3866;48.020;11.720;2023-12-04T00:59:14;16.17;;;10.27;;
7647;SDS011;3866;48.020;11.720;2023-12-04T01:01:40;16.63;;;10.27;;
7647;SDS011;3866;48.020;11.720;2023-12-04T01:04:07;15.70;;;10.70;;
7647;SDS011;3866;48.020;11.720;2023-12-04T01:06:34;16.93;;;10.57;;
7647;SDS011;3866;48.020;11.720;2023-12-04T01:09:01;17.00;;;10.93;;
7647;SDS011;3866;48.020;11.720;2023-12-04T01:11:29;12.83;;;9.77;;
7647;SDS011;3866;48.020;11.720;2023-12-04T01:13:56;14.53;;;10.23;;
7647;SDS011;3866;48.020;11.720;2023-12-04T01:16:23;14.80;;;9.53;;
7647;SDS011;3866;48.020;11.720;2023-12-04T01:18:50;13.10;;;9.63;;
7647;SDS011;3866;48.020;11.720;2023-12-04T01:21:17;12.47;;;9.03;;
7647;SDS011;3866;48.020;11.720;2023-12-04T01:23:45;15.70;;;9.53;;
7647;SDS011;3866;48.020;11.720;2023-12-04T01:26:12;13.27;;;9.57;;
7647;SDS011;3866;48.020;11.720;2023-12-04T01:28:40;12.53;;;8.77;;
7647;SDS011;3866;48.020;11.720;2023-12-04T01:31:07;15.80;;;10.00;;
7647;SDS011;3866;48.020;11.720;2023-12-04T01:33:34;13.73;;;9.10;;
7647;SDS011;3866;48.020;11.720;2023-12-04T01:36:01;12.37;;;8.17;;
7647;SDS011;3866;48.020;11.720;2023-12-04T01:38:28;12.40;;;9.00;;
7647;SDS011;3866;48.020;11.720;2023-12-04T01:40:56;13.40;;;8.73;;
7647;SDS011;3866;48.020;11.720;2023-12-04T01:43:23;13.43;;;8.80;;
7647;SDS011;3866;48.020;11.720;2023-12-04T01:45:51;13.77;;;9.03;;
7647;SDS011;3866;48.020;11.720;2023-12-04T01:48:18;13.43;;;9.90;;
7647;SDS011;3866;48.020;11.720;2023-12-04T01:50:46;14.63;;;9.93;;
7647;SDS011;3866;48.020;11.720;2023-12-04T01:53:14;16.93;;;12.03;;
7647;SDS011;3866;48.020;11.720;2023-12-04T01:55:41;12.20;;;9.93;;
7647;SDS011;3866;48.020;11.720;2023-12-04T01:58:08;13.70;;;10.90;;
7647;SDS011;3866;48.020;11.720;2023-12-04T02:00:36;11.47;;;9.03;;
7647;SDS011;3866;48.020;11.720;2023-12-04T02:03:04;12.30;;;8.30;;
7647;SDS011;3866;48.020;11.720;2023-12-04T02:05:32;12.27;;;8.53;;
7647;SDS011;3866;48.020;11.720;2023-12-04T02:08:01;11.17;;;8.03;;
7647;SDS011;3866;48.020;11.720;2023-12-04T02:10:28;10.73;;;7.93;;
7647;SDS011;3866;48.020;11.720;2023-12-04T02:12:55;11.93;;;7.97;;
7647;SDS011;3866;48.020;11.720;2023-12-04T02:15:23;12.37;;;8.27;;
7647;SDS011;3866;48.020;11.720;2023-12-04T02:17:50;12.33;;;7.90;;
7647;SDS011;3866;48.020;11.720;2023-12-04T02:20:19;12.73;;;8.97;;
7647;SDS011;3866;48.020;11.720;2023-12-04T02:22:46;11.00;;;7.70;;
7647;SDS011;3866;48.020;11.720;2023-12-04T02:25:14;12.63;;;8.40;;
7647;SDS011;3866;48.020;11.720;2023-12-04T02:27:47;10.97;;;7.90;;
7647;SDS011;3866;48.020;11.720;2023-12-04T02:30:17;10.80;;;7.73;;
7647;SDS011;3866;48.020;11.720;2023-12-04T02:32:46;10.43;;;7.27;;
7647;SDS011;3866;48.020;11.720;2023-12-04T02:35:14;12.20;;;8.00;;
7647;SDS011;3866;48.020;11.720;2023-12-04T02:37:45;9.20;;;7.33;;
7647;SDS011;3866;48.020;11.720;2023-12-04T02:40:15;11.30;;;7.67;;
7647;SDS011;3866;48.020;11.720;2023-12-04T02:42:42;13.10;;;9.40;;
7647;SDS011;3866;48.020;11.720;2023-12-04T02:45:09;13.87;;;9.47;;
7647;SDS011;3866;48.020;11.720;2023-12-04T02:47:36;16.37;;;9.90;;
7647;SDS011;3866;48.020;11.720;2023-12-04T02:50:03;12.00;;;7.73;;
7647;SDS011;3866;48.020;11.720;2023-12-04T02:52:30;13.20;;;9.60;;
7647;SDS011;3866;48.020;11.720;2023-12-04T02:54:57;12.90;;;8.27;;
7647;SDS011;3866;48.020;11.720;2023-12-04T02:57:26;12.83;;;8.00;;
7647;SDS011;3866;48.020;11.720;2023-12-04T02:59:52;11.97;;;7.83;;
7647;SDS011;3866;48.020;11.720;2023-12-04T03:02:19;14.10;;;7.77;;
7647;SDS011;3866;48.020;11.720;2023-12-04T03:04:46;12.73;;;8.27;;
7647;SDS011;3866;48.020;11.720;2023-12-04T03:07:13;11.70;;;8.07;;
7647;SDS011;3866;48.020;11.720;2023-12-04T03:09:40;12.47;;;8.00;;
7647;SDS011;3866;48.020;11.720;2023-12-04T03:12:07;14.53;;;8.60;;
7647;SDS011;3866;48.020;11.720;2023-12-04T03:14:35;11.93;;;7.67;;
7647;SDS011;3866;48.020;11.720;2023-12-04T03:17:02;10.03;;;7.33;;
7647;SDS011;3866;48.020;11.720;2023-12-04T03:19:29;12.73;;;8.70;;
7647;SDS011;3866;48.020;11.720;2023-12-04T03:21:56;11.93;;;7.83;;
7647;SDS011;3866;48.020;11.720;2023-12-04T03:24:23;12.47;;;8.03;;
7647;SDS011;3866;48.020;11.720;2023-12-04T03:26:50;9.63;;;6.83;;
7647;SDS011;3866;48.020;11.720;2023-12-04T03:29:17;12.67;;;7.87;;
7647;SDS011;3866;48.020;11.720;2023-12-04T03:31:46;11.23;;;8.43;;
7647;SDS011;3866;48.020;11.720;2023-12-04T03:34:12;11.57;;;8.80;;
7647;SDS011;3866;48.020;11.720;2023-12-04T03:36:39;13.67;;;10.67;;
7647;SDS011;3866;48.020;11.720;2023-12-04T03:39:06;11.97;;;9.70;;
7647;SDS011;3866;48.020;11.720;2023-12-04T03:41:33;12.13;;;7.57;;
7647;SDS011;3866;48.020;11.720;2023-12-04T03:44:00;10.90;;;7.67;;
7647;SDS011;3866;48.020;11.720;2023-12-04T03:46:27;11.87;;;8.07;;
7647;SDS011;3866;48.020;11.720;2023-12-04T03:48:55;9.83;;;7.67;;
7647;SDS011;3866;48.020;11.720;2023-12-04T03:51:22;12.33;;;7.77;;
7647;SDS011;3866;48.020;11.720;2023-12-04T03:53:49;10.53;;;7.57;;
7647;SDS011;3866;48.020;11.720;2023-12-04T03:56:18;12.63;;;7.93;;
7647;SDS011;3866;48.020;11.720;2023-12-04T03:58:45;10.67;;;7.53;;
7647;SDS011;3866;48.020;11.720;2023-12-04T04:01:12;15.17;;;7.60;;
7647;SDS011;3866;48.020;11.720;2023-12-04T04:03:39;11.83;;;7.43;;
7647;SDS011;3866;48.020;11.720;2023-12-04T04:06:09;10.87;;;6.77;;
7647;SDS011;3866;48.020;11.720;2023-12-04T04:08:36;11.23;;;7.70;;
7647;SDS011;3866;48.020;11.720;2023-12-04T04:11:03;9.50;;;6.97;;
7647;SDS011;3866;48.020;11.720;2023-12-04T04:13:30;9.83;;;7.40;;
7647;SDS011;3866;48.020;11.720;2023-12-04T04:15:57;10.50;;;7.10;;
7647;SDS011;3866;48.020;11.720;2023-12-04T04:18:24;9.10;;;6.63;;
7647;SDS011;3866;48.020;11.720;2023-12-04T04:20:51;11.77;;;7.60;;
7647;SDS011;3866;48.020;11.720;2023-12-04T04:23:19;10.13;;;6.53;;
7647;SDS011;3866;48.020;11.720;2023-12-04T04:25:46;10.33;;;6.60;;
7647;SDS011;3866;48.020;11.720;2023-12-04T04:28:13;10.37;;;6.40;;
7647;SDS011;3866;48.020;11.720;2023-12-04T04:30:40;9.87;;;6.60;;
7647;SDS011;3866;48.020;11.720;2023-12-04T04:33:07;10.13;;;6.97;;
7647;SDS011;3866;48.020;11.720;2023-12-04T04:35:36;11.90;;;7.87;;
7647;SDS011;3866;48.020;11.720;2023-12-04T04:38:03;12.83;;;7.23;;
7647;SDS011;3866;48.020;11.720;2023-12-04T04:40:31;9.30;;;6.70;;
7647;SDS011;3866;48.020;11.720;2023-12-04T04:42:58;10.73;;;7.57;;
7647;SDS011;3866;48.020;11.720;2023-12-04T04:45:25;10.47;;;7.27;;
7647;SDS011;3866;48.020;11.720;2023-12-04T04:47:52;11.20;;;6.97;;
7647;SDS011;3866;48.020;11.720;2023-12-04T04:50:19;9.77;;;6.83;;
7647;SDS011;3866;48.020;11.720;2023-12-04T04:52:46;8.90;;;6.63;;
7647;SDS011;3866;48.020;11.720;2023-12-04T04:55:13;8.47;;;6.47;;
7647;SDS011;3866;48.020;11.720;2023-12-04T04:57:41;8.20;;;6.13;;
7647;SDS011;3866;48.020;11.720;2023-12-04T05:00:09;8.83;;;6.80;;
7647;SDS011;3866;48.020;11.720;2023-12-04T05:02:36;9.93;;;6.77;;
7647;SDS011;3866;48.020;11.720;2023-12-04T05:05:03;10.43;;;7.17;;
7647;SDS011;3866;48.020;11.720;2023-12-04T05:07:30;9.80;;;6.73;;
7647;SDS011;3866;48.020;11.720;2023-12-04T05:09:57;9.87;;;6.60;;
7647;SDS011;3866;48.020;11.720;2023-12-04T05:12:24;11.00;;;6.97;;
7647;SDS011;3866;48.020;11.720;2023-12-04T05:14:52;9.50;;;6.60;;
7647;SDS011;3866;48.020;11.720;2023-12-04T05:17:19;30.13;;;17.70;;
7647;SDS011;3866;48.020;11.720;2023-12-04T05:19:46;21.07;;;12.43;;
7647;SDS011;3866;48.020;11.720;2023-12-04T05:22:13;9.43;;;6.37;;
7647;SDS011;3866;48.020;11.720;2023-12-04T05:24:40;8.03;;;6.40;;
7647;SDS011;3866;48.020;11.720;2023-12-04T05:27:07;10.63;;;6.77;;
7647;SDS011;3866;48.020;11.720;2023-12-04T05:29:34;8.90;;;6.97;;
7647;SDS011;3866;48.020;11.720;2023-12-04T05:32:02;8.10;;;6.30;;
7647;SDS011;3866;48.020;11.720;2023-12-04T05:34:30;11.40;;;6.80;;
7647;SDS011;3866;48.020;11.720;2023-12-04T05:36:56;9.83;;;6.30;;
7647;SDS011;3866;48.020;11.720;2023-12-04T05:39:23;8.87;;;6.37;;
7647;SDS011;3866;48.020;11.720;2023-12-04T05:41:50;9.73;;;6.90;;
7647;SDS011;3866;48.020;11.720;2023-12-04T05:44:17;12.40;;;8.13;;
7647;SDS011;3866;48.020;11.720;2023-12-04T05:46:43;8.90;;;7.00;;
7647;SDS011;3866;48.020;11.720;2023-12-04T05:49:11;8.90;;;6.90;;
7647;SDS011;3866;48.020;11.720;2023-12-04T05:51:38;10.30;;;6.57;;
7647;SDS011;3866;48.020;11.720;2023-12-04T05:54:05;10.20;;;8.07;;
7647;SDS011;3866;48.020;11.720;2023-12-04T05:56:34;11.43;;;9.23;;
7647;SDS011;3866;48.020;11.720;2023-12-04T05:59:01;10.13;;;7.73;;
7647;SDS011;3866;48.020;11.720;2023-12-04T06:01:28;10.93;;;9.13;;
7647;SDS011;3866;48.020;11.720;2023-12-04T06:03:55;8.93;;;6.77;;
7647;SDS011;3866;48.020;11.720;2023-12-04T06:06:23;8.67;;;6.27;;
7647;SDS011;3866;48.020;11.720;2023-12-04T06:08:50;11.10;;;7.20;;
7647;SDS011;3866;48.020;11.720;2023-12-04T06:11:17;10.40;;;6.90;;
7647;SDS011;3866;48.020;11.720;2023-12-04T06:13:44;8.67;;;6.47;;
7647;SDS011;3866;48.020;11.720;2023-12-04T06:16:11;8.33;;;5.90;;
7647;SDS011;3866;48.020;11.720;2023-12-04T06:18:38;9.10;;;6.73;;
7647;SDS011;3866;48.020;11.720;2023-12-04T06:21:05;11.77;;;6.33;;
7647;SDS011;3866;48.020;11.720;2023-12-04T06:23:34;8.37;;;5.70;;
7647;SDS011;3866;48.020;11.720;2023-12-04T06:26:01;8.83;;;6.63;;
7647;SDS011;3866;48.020;11.720;2023-12-04T06:28:28;9.33;;;6.07;;
7647;SDS011;3866;48.020;11.720;2023-12-04T06:30:56;9.90;;;6.73;;
7647;SDS011;3866;48.020;11.720;2023-12-04T06:33:23;9.83;;;6.60;;
7647;SDS011;3866;48.020;11.720;2023-12-04T06:35:51;9.13;;;6.33;;
7647;SDS011;3866;48.020;11.720;2023-12-04T06:38:18;9.70;;;6.60;;
7647;SDS011;3866;48.020;11.720;2023-12-04T06:40:50;11.70;;;7.80;;
7647;SDS011;3866;48.020;11.720;2023-12-04T06:43:18;9.67;;;6.67;;
7647;SDS011;3866;48.020;11.720;2023-12-04T06:45:45;9.13;;;6.77;;
7647;SDS011;3866;48.020;11.720;2023-12-04T06:48:13;10.30;;;6.73;;
7647;SDS011;3866;48.020;11.720;2023-12-04T06:50:41;9.53;;;7.13;;
7647;SDS011;3866;48.020;11.720;2023-12-04T06:53:10;9.30;;;6.50;;
7647;SDS011;3866;48.020;11.720;2023-12-04T06:55:37;10.63;;;7.30;;
7647;SDS011;3866;48.020;11.720;2023-12-04T06:58:05;11.70;;;8.93;;
7647;SDS011;3866;48.020;11.720;2023-12-04T07:00:32;10.13;;;7.97;;
7647;SDS011;3866;48.020;11.720;2023-12-04T07:02:59;10.33;;;7.93;;
7647;SDS011;3866;48.020;11.720;2023-12-04T07:05:26;11.53;;;8.60;;
7647;SDS011;3866;48.020;11.720;2023-12-04T07:07:53;8.57;;;6.70;;
7647;SDS011;3866;48.020;11.720;2023-12-04T07:10:19;11.30;;;7.63;;
7647;SDS011;3866;48.020;11.720;2023-12-04T07:12:46;9.73;;;7.20;;
7647;SDS011;3866;48.020;11.720;2023-12-04T07:15:15;9.40;;;6.80;;
7647;SDS011;3866;48.020;11.720;2023-12-04T07:17:42;9.73;;;7.17;;
7647;SDS011;3866;48.020;11.720;2023-12-04T07:20:09;10.23;;;7.27;;
7647;SDS011;3866;48.020;11.720;2023-12-04T07:22:38;11.60;;;7.57;;
7647;SDS011;3866;48.020;11.720;2023-12-04T07:25:05;10.17;;;7.27;;
7647;SDS011;3866;48.020;11.720;2023-12-04T07:27:33;12.63;;;7.37;;
7647;SDS011;3866;48.020;11.720;2023-12-04T07:30:00;11.37;;;7.57;;
7647;SDS011;3866;48.020;11.720;2023-12-04T07:32:29;11.13;;;8.17;;
7647;SDS011;3866;48.020;11.720;2023-12-04T07:34:57;14.10;;;9.20;;
7647;SDS011;3866;48.020;11.720;2023-12-04T07:37:25;12.87;;;8.27;;
7647;SDS011;3866;48.020;11.720;2023-12-04T07:39:52;11.00;;;7.70;;
7647;SDS011;3866;48.020;11.720;2023-12-04T07:42:19;9.33;;;7.00;;
7647;SDS011;3866;48.020;11.720;2023-12-04T07:44:46;10.80;;;7.17;;
7647;SDS011;3866;48.020;11.720;2023-12-04T07:47:13;10.13;;;7.30;;
7647;SDS011;3866;48.020;11.720;2023-12-04T07:49:42;10.10;;;7.37;;
7647;SDS011;3866;48.020;11.720;2023-12-04T07:52:11;12.47;;;7.60;;
7647;SDS011;3866;48.020;11.720;2023-12-04T07:54:38;11.40;;;7.40;;
7647;SDS011;3866;48.020;11.720;2023-12-04T07:57:05;10.60;;;7.17;;
7647;SDS011;3866;48.020;11.720;2023-12-04T07:59:32;11.40;;;7.20;;
7647;SDS011;3866;48.020;11.720;2023-12-04T08:01:59;12.67;;;8.57;;
7647;SDS011;3866;48.020;11.720;2023-12-04T08:04:27;11.53;;;7.67;;
7647;SDS011;3866;48.020;11.720;2023-12-04T08:06:55;10.23;;;7.47;;
7647;SDS011;3866;48.020;11.720;2023-12-04T08:09:22;15.50;;;10.23;;
7647;SDS011;3866;48.020;11.720;2023-12-04T08:11:49;10.90;;;7.43;;
7647;SDS011;3866;48.020;11.720;2023-12-04T08:14:17;10.40;;;8.10;;
7647;SDS011;3866;48.020;11.720;2023-12-04T08:16:44;12.47;;;6.83;;
7647;SDS011;3866;48.020;11.720;2023-12-04T08:19:11;28.63;;;16.57;;
7647;SDS011;3866;48.020;11.720;2023-12-04T08:21:38;12.00;;;7.50;;
7647;SDS011;3866;48.020;11.720;2023-12-04T08:24:06;12.40;;;7.63;;
7647;SDS011;3866;48.020;11.720;2023-12-04T08:26:34;12.03;;;8.57;;
7647;SDS011;3866;48.020;11.720;2023-12-04T08:29:01;16.53;;;11.23;;
7647;SDS011;3866;48.020;11.720;2023-12-04T08:31:28;15.23;;;9.70;;
7647;SDS011;3866;48.020;11.720;2023-12-04T08:33:55;16.83;;;10.60;;
7647;SDS011;3866;48.020;11.720;2023-12-04T08:36:22;21.20;;;11.70;;
7647;SDS011;3866;48.020;11.720;2023-12-04T08:38:53;16.87;;;10.20;;
7647;SDS011;3866;48.020;11.720;2023-12-04T08:41:22;17.33;;;10.50;;
7647;SDS011;3866;48.020;11.720;2023-12-04T08:43:49;15.17;;;10.43;;
7647;SDS011;3866;48.020;11.720;2023-12-04T08:46:16;15.27;;;10.10;;
7647;SDS011;3866;48.020;11.720;2023-12-04T08:48:43;13.13;;;8.90;;
7647;SDS011;3866;48.020;11.720;2023-12-04T08:51:14;14.67;;;10.47;;
7647;SDS011;3866;48.020;11.720;2023-12-04T08:53:42;14.47;;;10.90;;
7647;SDS011;3866;48.020;11.720;2023-12-04T08:56:09;13.00;;;9.83;;
7647;SDS011;3866;48.020;11.720;2023-12-04T08:58:40;14.90;;;10.90;;
7647;SDS011;3866;48.020;11.720;2023-12-04T09:01:10;19.30;;;12.37;;
7647;SDS011;3866;48.020;11.720;2023-12-04T09:03:39;18.53;;;13.77;;
7647;SDS011;3866;48.020;11.720;2023-12-04T09:06:06;16.43;;;11.87;;
7647;SDS011;3866;48.020;11.720;2023-12-04T09:08:34;13.23;;;9.80;;
7647;SDS011;3866;48.020;11.720;2023-12-04T09:11:01;13.27;;;9.67;;
7647;SDS011;3866;48.020;11.720;2023-12-04T09:13:28;12.77;;;8.93;;
7647;SDS011;3866;48.020;11.720;2023-12-04T09:15:58;13.03;;;9.33;;
7647;SDS011;3866;48.020;11.720;2023-12-04T09:18:25;15.17;;;9.77;;
7647;SDS011;3866;48.020;11.720;2023-12-04T09:20:52;10.87;;;7.33;;
7647;SDS011;3866;48.020;11.720;2023-12-04T09:23:18;9.27;;;6.93;;
7647;SDS011;3866;48.020;11.720;2023-12-04T09:25:45;8.43;;;7.17;;
7647;SDS011;3866;48.020;11.720;2023-12-04T09:28:12;10.97;;;7.40;;
7647;SDS011;3866;48.020;11.720;2023-12-04T09:30:39;9.70;;;6.27;;
7647;SDS011;3866;48.020;11.720;2023-12-04T09:33:08;8.27;;;6.40;;
7647;SDS011;3866;48.020;11.720;2023-12-04T09:35:35;10.53;;;6.97;;
7647;SDS011;3866;48.020;11.720;2023-12-04T09:38:02;9.33;;;6.47;;
7647;SDS011;3866;48.020;11.720;2023-12-04T09:40:29;8.07;;;6.57;;
7647;SDS011;3866;48.020;11.720;2023-12-04T09:42:57;9.23;;;6.93;;
7647;SDS011;3866;48.020;11.720;2023-12-04T09:45:24;10.50;;;6.67;;
7647;SDS011;3866;48.020;11.720;2023-12-04T09:47:51;10.50;;;6.53;;
7647;SDS011;3866;48.020;11.720;2023-12-04T09:50:20;9.23;;;6.03;;
7647;SDS011;3866;48.020;11.720;2023-12-04T09:52:47;7.43;;;5.83;;
7647;SDS011;3866;48.020;11.720;2023-12-04T09:55:15;6.93;;;5.27;;
7647;SDS011;3866;48.020;11.720;2023-12-04T09:57:42;10.90;;;7.27;;
7647;SDS011;3866;48.020;11.720;2023-12-04T10:00:10;9.37;;;7.07;;
7647;SDS011;3866;48.020;11.720;2023-12-04T10:02:39;9.60;;;6.80;;
7647;SDS011;3866;48.020;11.720;2023-12-04T10:05:07;9.87;;;6.83;;
7647;SDS011;3866;48.020;11.720;2023-12-04T10:07:36;8.33;;;6.63;;
7647;SDS011;3866;48.020;11.720;2023-12-04T10:10:03;14.10;;;8.90;;
7647;SDS011;3866;48.020;11.720;2023-12-04T10:12:31;18.60;;;11.77;;
7647;SDS011;3866;48.020;11.720;2023-12-04T10:15:03;14.37;;;9.90;;
7647;SDS011;3866;48.020;11.720;2023-12-04T10:17:34;14.30;;;9.70;;
7647;SDS011;3866;48.020;11.720;2023-12-04T10:20:06;12.50;;;9.93;;
7647;SDS011;3866;48.020;11.720;2023-12-04T10:22:38;15.37;;;9.03;;
7647;SDS011;3866;48.020;11.720;2023-12-04T10:25:13;13.97;;;8.70;;
7647;SDS011;3866;48.020;11.720;2023-12-04T10:27:41;10.53;;;7.97;;
7647;SDS011;3866;48.020;11.720;2023-12-04T10:30:09;13.00;;;8.07;;
7647;SDS011;3866;48.020;11.720;2023-12-04T10:32:48;10.63;;;7.77;;
7647;SDS011;3866;48.020;11.720;2023-12-04T10:35:15;10.60;;;7.77;;
7647;SDS011;3866;48.020;11.720;2023-12-04T10:37:43;12.70;;;9.30;;
7647;SDS011;3866;48.020;11.720;2023-12-04T10:40:09;11.97;;;8.27;;
7647;SDS011;3866;48.020;11.720;2023-12-04T10:42:37;13.33;;;9.50;;
7647;SDS011;3866;48.020;11.720;2023-12-04T10:45:05;14.33;;;9.53;;
7647;SDS011;3866;48.020;11.720;2023-12-04T10:47:32;13.87;;;9.67;;
7647;SDS011;3866;48.020;11.720;2023-12-04T10:50:02;15.47;;;10.07;;
7647;SDS011;3866;48.020;11.720;2023-12-04T10:52:30;17.53;;;11.60;;
7647;SDS011;3866;48.020;11.720;2023-12-04T10:54:59;19.63;;;11.30;;
7647;SDS011;3866;48.020;11.720;2023-12-04T10:57:27;14.17;;;9.77;;
7647;SDS011;3866;48.020;11.720;2023-12-04T11:00:04;13.23;;;9.93;;
7647;SDS011;3866;48.020;11.720;2023-12-04T11:02:33;13.53;;;9.63;;
7647;SDS011;3866;48.020;11.720;2023-12-04T11:05:01;12.83;;;9.90;;
7647;SDS011;3866;48.020;11.720;2023-12-04T11:07:38;11.63;;;9.30;;
7647;SDS011;3866;48.020;11.720;2023-12-04T11:10:09;14.13;;;10.03;;
7647;SDS011;3866;48.020;11.720;2023-12-04T11:12:38;11.70;;;8.50;;
7647;SDS011;3866;48.020;11.720;2023-12-04T11:15:08;13.00;;;8.87;;
7647;SDS011;3866;48.020;11.720;2023-12-04T11:17:39;12.43;;;8.17;;
7647;SDS011;3866;48.020;11.720;2023-12-04T11:20:10;12.93;;;9.30;;
7647;SDS011;3866;48.020;11.720;2023-12-04T11:22:41;11.90;;;8.57;;
7647;SDS011;3866;48.020;11.720;2023-12-04T11:25:10;11.63;;;8.67;;
7647;SDS011;3866;48.020;11.720;2023-12-04T11:27:39;12.23;;;8.70;;
7647;SDS011;3866;48.020;11.720;2023-12-04T11:30:07;21.00;;;9.43;;
7647;SDS011;3866;48.020;11.720;2023-12-04T11:32:43;13.93;;;9.93;;
7647;SDS011;3866;48.020;11.720;2023-12-04T11:35:12;13.87;;;9.00;;
7647;SDS011;3866;48.020;11.720;2023-12-04T11:37:40;12.30;;;8.00;;
7647;SDS011;3866;48.020;11.720;2023-12-04T11:40:12;12.47;;;8.23;;
7647;SDS011;3866;48.020;11.720;2023-12-04T11:42:40;11.87;;;9.03;;
7647;SDS011;3866;48.020;11.720;2023-12-04T11:45:07;12.63;;;9.00;;
7647;SDS011;3866;48.020;11.720;2023-12-04T11:47:50;15.63;;;9.50;;
7647;SDS011;3866;48.020;11.720;2023-12-04T11:50:18;19.87;;;11.37;;
7647;SDS011;3866;48.020;11.720;2023-12-04T11:52:46;20.10;;;11.87;;
7647;SDS011;3866;48.020;11.720;2023-12-04T11:55:16;17.10;;;11.40;;
7647;SDS011;3866;48.020;11.720;2023-12-04T11:57:46;18.33;;;11.40;;
7647;SDS011;3866;48.020;11.720;2023-12-04T12:00:20;16.93;;;10.13;;
7647;SDS011;3866;48.020;11.720;2023-12-04T12:03:00;13.20;;;10.50;;
7647;SDS011;3866;48.020;11.720;2023-12-04T12:05:31;15.83;;;11.70;;
7647;SDS011;3866;48.020;11.720;2023-12-04T12:08:01;17.50;;;12.83;;
7647;SDS011;3866;48.020;11.720;2023-12-04T12:10:30;18.50;;;12.37;;
7647;SDS011;3866;48.020;11.720;2023-12-04T12:12:58;21.73;;;14.80;;
7647;SDS011;3866;48.020;11.720;2023-12-04T12:15:26;18.50;;;12.87;;
7647;SDS011;3866;48.020;11.720;2023-12-04T12:17:54;19.50;;;12.73;;
7647;SDS011;3866;48.020;11.720;2023-12-04T12:20:21;16.10;;;11.00;;
7647;SDS011;3866;48.020;11.720;2023-12-04T12:22:48;21.97;;;12.80;;
7647;SDS011;3866;48.020;11.720;2023-12-04T12:25:15;31.03;;;19.93;;
7647;SDS011;3866;48.020;11.720;2023-12-04T12:27:44;30.67;;;20.03;;
7647;SDS011;3866;48.020;11.720;2023-12-04T12:30:12;17.97;;;13.13;;
7647;SDS011;3866;48.020;11.720;2023-12-04T12:32:39;21.60;;;11.83;;
7647;SDS011;3866;48.020;11.720;2023-12-04T12:35:07;21.40;;;12.70;;
7647;SDS011;3866;48.020;11.720;2023-12-04T12:37:34;15.83;;;11.90;;
7647;SDS011;3866;48.020;11.720;2023-12-04T12:40:02;17.27;;;12.00;;
7647;SDS011;3866;48.020;11.720;2023-12-04T12:42:34;18.90;;;12.33;;
7647;SDS011;3866;48.020;11.720;2023-12-04T12:45:03;16.53;;;12.93;;
7647;SDS011;3866;48.020;11.720;2023-12-04T12:47:31;15.00;;;11.63;;
7647;SDS011;3866;48.020;11.720;2023-12-04T12:49:58;14.90;;;11.77;;
7647;SDS011;3866;48.020;11.720;2023-12-04T12:52:29;16.13;;;10.97;;
7647;SDS011;3866;48.020;11.720;2023-12-04T12:54:56;15.27;;;11.20;;
7647;SDS011;3866;48.020;11.720;2023-12-04T12:57:23;15.83;;;11.77;;
7647;SDS011;3866;48.020;11.720;2023-12-04T12:59:50;16.47;;;11.67;;
7647;SDS011;3866;48.020;11.720;2023-12-04T13:02:19;16.23;;;12.17;;
7647;SDS011;3866;48.020;11.720;2023-12-04T13:04:46;19.07;;;12.00;;
7647;SDS011;3866;48.020;11.720;2023-12-04T13:07:13;16.37;;;11.77;;
7647;SDS011;3866;48.020;11.720;2023-12-04T13:09:41;12.37;;;10.50;;
7647;SDS011;3866;48.020;11.720;2023-12-04T13:12:08;14.83;;;9.73;;
7647;SDS011;3866;48.020;11.720;2023-12-04T13:14:35;14.67;;;10.67;;
7647;SDS011;3866;48.020;11.720;2023-12-04T13:17:03;13.80;;;9.47;;
7647;SDS011;3866;48.020;11.720;2023-12-04T13:19:32;14.40;;;10.23;;
7647;SDS011;3866;48.020;11.720;2023-12-04T13:22:01;15.80;;;10.60;;
7647;SDS011;3866;48.020;11.720;2023-12-04T13:24:29;12.90;;;9.97;;
7647;SDS011;3866;48.020;11.720;2023-12-04T13:26:56;12.63;;;9.47;;
7647;SDS011;3866;48.020;11.720;2023-12-04T13:29:23;13.30;;;10.30;;
7647;SDS011;3866;48.020;11.720;2023-12-04T13:31:50;17.90;;;12.10;;
7647;SDS011;3866;48.020;11.720;2023-12-04T13:34:16;28.73;;;14.00;;
7647;SDS011;3866;48.020;11.720;2023-12-04T13:36:45;15.27;;;11.60;;
7647;SDS011;3866;48.020;11.720;2023-12-04T13:39:12;17.13;;;12.30;;
7647;SDS011;3866;48.020;11.720;2023-12-04T13:41:45;19.80;;;12.33;;
7647;SDS011;3866;48.020;11.720;2023-12-04T13:44:44;12.40;;;10.67;;
7647;SDS011;3866;48.020;11.720;2023-12-04T13:47:11;16.90;;;12.00;;
7647;SDS011;3866;48.020;11.720;2023-12-04T13:49:39;16.83;;;12.20;;
7647;SDS011;3866;48.020;11.720;2023-12-04T13:52:14;14.63;;;9.93;;
7647;SDS011;3866;48.020;11.720;2023-12-04T13:54:45;14.87;;;11.83;;
7647;SDS011;3866;48.020;11.720;2023-12-04T13:57:14;14.17;;;11.60;;
7647;SDS011;3866;48.020;11.720;2023-12-04T13:59:46;14.07;;;11.03;;
7647;SDS011;3866;48.020;11.720;2023-12-04T14:02:13;15.40;;;9.87;;
7647;SDS011;3866;48.020;11.720;2023-12-04T14:04:40;16.03;;;13.13;;
7647;SDS011;3866;48.020;11.720;2023-12-04T14:07:07;19.67;;;15.80;;
7647;SDS011;3866;48.020;11.720;2023-12-04T14:09:37;17.47;;;12.47;;
7647;SDS011;3866;48.020;11.720;2023-12-04T14:12:05;18.40;;;12.93;;
7647;SDS011;3866;48.020;11.720;2023-12-04T14:14:33;15.57;;;11.67;;
7647;SDS011;3866;48.020;11.720;2023-12-04T14:17:00;18.10;;;11.17;;
7647;SDS011;3866;48.020;11.720;2023-12-04T14:19:29;16.77;;;11.07;;
7647;SDS011;3866;48.020;11.720;2023-12-04T14:21:56;22.73;;;16.37;;
7647;SDS011;3866;48.020;11.720;2023-12-04T14:24:23;15.60;;;10.00;;
7647;SDS011;3866;48.020;11.720;2023-12-04T14:26:52;14.17;;;11.90;;
7647;SDS011;3866;48.020;11.720;2023-12-04T14:29:19;13.30;;;11.60;;
7647;SDS011;3866;48.020;11.720;2023-12-04T14:31:46;15.63;;;12.13;;
7647;SDS011;3866;48.020;11.720;2023-12-04T14:34:13;17.23;;;13.87;;
7647;SDS011;3866;48.020;11.720;2023-12-04T14:36:41;20.73;;;14.37;;
7647;SDS011;3866;48.020;11.720;2023-12-04T14:39:08;28.40;;;21.30;;
7647;SDS011;3866;48.020;11.720;2023-12-04T14:41:37;54.17;;;47.37;;
7647;SDS011;3866;48.020;11.720;2023-12-04T14:44:05;25.87;;;23.17;;
7647;SDS011;3866;48.020;11.720;2023-12-04T14:46:32;21.87;;;15.13;;
7647;SDS011;3866;48.020;11.720;2023-12-04T14:48:59;19.53;;;14.07;;